Terminal Aerodrome Forecast
Issued by NWS Twin Cities, MN

Home | Current Version | Previous Version | Graphics & Text | Print | Product List | Glossary On
Versions: 1 2 3 4 5 6 7 8 9 10 11 12 13 14
000
FTUS43 KMPX 201100
TAFEAU
TAF
KEAU 201120Z 2012/2112 20003KT P6SM VCSH OVC070
     FM201500 21004KT P6SM BKN060
     FM202100 06004KT P6SM SCT060 BKN150
     FM210100 07002KT P6SM VCSH BKN060 PROB30 2108/2112 4SM -SHRA
      OVC050CB=

USA.gov is the U.S. government's official web portal to all federal, state and local government web resources and services.